Oosterschelde — PGNP — position and weather

sailwx.info

Track history (hours):
 
Tides and Currents Weather Stations Pressure Air Temp Water Temp Dewpoint Dewpoint Depression Visibility Wind Speed Wind Dir Waves Ship Positions

Oosterschelde (Netherlands)

Ship's website: http://www.oosterschelde.nl/indexuk.htm

Last reported at 2017-Jun-23 03:35 UTC. Time now 2017-Jun-26 12:00 UTC.
Position N 42°51' W 069°39'.

Length 49 m; draft 2.9 m.

Type: Sailing vessel. MMSI: 246010985.

Date/timePositionNaut miles runAvg speedWind from/ knotsBaromVisibWave heightAir tempDewpointWater temp
2017-Jun-23 03:35N 42°51' W 069°39'1 6.6
2017-Jun-23 03:30N 42°51' W 069°40'3 6.7
2017-Jun-23 03:00N 42°51' W 069°45'3 5.8
2017-Jun-23 02:29N 42°50' W 069°49'3 6.8
2017-Jun-23 02:00N 42°50' W 069°53'4 6.5
2017-Jun-23 01:20N 42°49' W 069°59'2 6.1
2017-Jun-23 01:00N 42°49' W 070°02'3 5.8
2017-Jun-23 00:30N 42°48' W 070°06'3 6.3
2017-Jun-23 00:00N 42°47' W 070°09'4 7.2
2017-Jun-22 23:30N 42°45' W 070°14'4 7.9
2017-Jun-22 23:00N 42°43' W 070°18'4 7.9
2017-Jun-22 22:30N 42°40' W 070°22'4 8.1
2017-Jun-22 22:00N 42°38' W 070°27'1 2.5
2017-Jun-22 21:30N 42°38' W 070°29'2 3.5
2017-Jun-22 21:00N 42°36' W 070°27'3 6.3
2017-Jun-22 20:30N 42°34' W 070°30'3 6.8
2017-Jun-22 20:00N 42°32' W 070°34'4 7.5
2017-Jun-22 19:30N 42°30' W 070°38'4 8.3
2017-Jun-22 19:00N 42°29' W 070°43'4 8.2
2017-Jun-22 18:30N 42°27' W 070°48'3 6.6
2017-Jun-22 18:00N 42°25' W 070°52'3 6.4
2017-Jun-22 17:30N 42°22' W 070°55'4 7.6
2017-Jun-22 17:00N 42°20' W 070°59'3 5.6
2017-Jun-22 16:28N 42°21' W 071°03'0 0.0
2017-Jun-22 15:55N 42°21' W 071°03'0 0.0
2017-Jun-22 15:25N 42°21' W 071°03'0 0.0
2017-Jun-22 14:55N 42°21' W 071°03'0 0.0
2017-Jun-22 13:58N 42°21' W 071°03'0 0.1
2017-Jun-22 13:28N 42°21' W 071°03'0 0.1
2017-Jun-22 12:55N 42°21' W 071°03'0 0.0
2017-Jun-22 12:28N 42°21' W 071°03'0 0.0
2017-Jun-22 11:55N 42°21' W 071°03'0 0.0
2017-Jun-22 11:25N 42°21' W 071°03'0 0.1
2017-Jun-22 10:58N 42°21' W 071°03'0 0.0
2017-Jun-22 10:28N 42°21' W 071°03'0 0.0
2017-Jun-22 09:58N 42°21' W 071°03'0 0.0
2017-Jun-22 09:28N 42°21' W 071°03'0 0.0
2017-Jun-22 08:58N 42°21' W 071°03'0 0.0
2017-Jun-22 08:28N 42°21' W 071°03'0 0.0
2017-Jun-22 07:58N 42°21' W 071°03'0 0.0
2017-Jun-22 07:28N 42°21' W 071°03'0 0.0
2017-Jun-22 06:58N 42°21' W 071°03'0 0.1
2017-Jun-22 06:28N 42°21' W 071°03'0 0.1
2017-Jun-22 05:58N 42°21' W 071°03'0 0.0
2017-Jun-22 05:28N 42°21' W 071°03'0 0.0
2017-Jun-22 04:55N 42°21' W 071°03'0 0.0
2017-Jun-22 04:25N 42°21' W 071°03'0 0.0
2017-Jun-22 03:55N 42°21' W 071°03'0 0.0
2017-Jun-22 03:19N 42°21' W 071°03'0 0.0
2017-Jun-22 02:55N 42°21' W 071°03'0 0.0
2017-Jun-22 02:25N 42°21' W 071°03'0 0.0
2017-Jun-22 01:55N 42°21' W 071°03'0 0.0
2017-Jun-22 01:25N 42°21' W 071°03'0 0.0
2017-Jun-22 00:58N 42°21' W 071°03'0 0.0
2017-Jun-22 00:28N 42°21' W 071°03'0 0.0
2017-Jun-21 23:49N 42°21' W 071°03'0 0.0
2017-Jun-21 23:25N 42°21' W 071°03'0 0.0
2017-Jun-21 22:55N 42°21' W 071°03'0 0.0
2017-Jun-21 22:28N 42°21' W 071°03'0 0.0
2017-Jun-21 21:55N 42°21' W 071°03'0 0.0
2017-Jun-21 21:28N 42°21' W 071°03'0 0.0
2017-Jun-21 20:58N 42°21' W 071°03'0 0.0
2017-Jun-21 20:25N 42°21' W 071°03'0 0.0
2017-Jun-21 19:58N 42°21' W 071°03'0 0.0
2017-Jun-21 19:28N 42°21' W 071°03'0 0.0
2017-Jun-21 18:58N 42°21' W 071°03'0 0.0
2017-Jun-21 18:25N 42°21' W 071°03'0 0.0
2017-Jun-21 17:58N 42°21' W 071°03'0 0.0
2017-Jun-21 17:28N 42°21' W 071°03'0 0.0
2017-Jun-21 16:58N 42°21' W 071°03'0 0.0
2017-Jun-21 16:25N 42°21' W 071°03'0 0.0
2017-Jun-21 15:55N 42°21' W 071°03'0 0.0
2017-Jun-21 15:28N 42°21' W 071°03'0 0.1
2017-Jun-21 14:55N 42°21' W 071°03'0 0.1
2017-Jun-21 14:25N 42°21' W 071°03'0 0.0
2017-Jun-21 13:28N 42°21' W 071°03'0 0.0
2017-Jun-21 12:58N 42°21' W 071°03'0 0.0
2017-Jun-21 12:28N 42°21' W 071°03'0 0.0
2017-Jun-21 11:55N 42°21' W 071°03'0 0.0
2017-Jun-21 11:28N 42°21' W 071°03'0 0.0
2017-Jun-21 10:58N 42°21' W 071°03'0 0.0
2017-Jun-21 10:28N 42°21' W 071°03'0 0.0
2017-Jun-21 09:58N 42°21' W 071°03'0 0.0
2017-Jun-21 09:28N 42°21' W 071°03'0 0.0
2017-Jun-21 08:55N 42°21' W 071°03'0 0.0
2017-Jun-21 08:28N 42°21' W 071°03'0 0.0
2017-Jun-21 07:58N 42°21' W 071°03'0 0.0
2017-Jun-21 07:25N 42°21' W 071°03'0 0.0
2017-Jun-21 06:58N 42°21' W 071°03'0 0.0
2017-Jun-21 06:28N 42°21' W 071°03'0 0.0
2017-Jun-21 05:58N 42°21' W 071°03'0 0.0
2017-Jun-21 05:25N 42°21' W 071°03'0 0.1
2017-Jun-21 04:58N 42°21' W 071°03'0 0.1
2017-Jun-21 04:25N 42°21' W 071°03'0 0.0
2017-Jun-21 03:58N 42°21' W 071°03'0 0.0
2017-Jun-21 03:28N 42°21' W 071°03'0 0.0
2017-Jun-21 02:58N 42°21' W 071°03'0 0.0
2017-Jun-21 02:28N 42°21' W 071°03'0 0.0
2017-Jun-21 01:55N 42°21' W 071°03'0 0.0
2017-Jun-21 01:28N 42°21' W 071°03'0 0.0
2017-Jun-21 00:58N 42°21' W 071°03'0 0.0
2017-Jun-21 00:28N 42°21' W 071°03'0 0.0
2017-Jun-20 23:55N 42°21' W 071°03'0 0.0
2017-Jun-20 23:25N 42°21' W 071°03'0 0.0
2017-Jun-20 22:55N 42°21' W 071°03'0 0.0
2017-Jun-20 22:28N 42°21' W 071°03'0 0.0
2017-Jun-20 21:55N 42°21' W 071°03'0 0.0
2017-Jun-20 21:28N 42°21' W 071°03'0 0.0
2017-Jun-20 20:58N 42°21' W 071°03'0 0.0
2017-Jun-20 20:28N 42°21' W 071°03'0 0.0
2017-Jun-20 19:58N 42°21' W 071°03'0 0.0
2017-Jun-20 19:28N 42°21' W 071°03'0 0.0
2017-Jun-20 18:58N 42°21' W 071°03'0 0.0
2017-Jun-20 18:25N 42°21' W 071°03'0 0.0
2017-Jun-20 17:58N 42°21' W 071°03'0 0.0
2017-Jun-20 17:25N 42°21' W 071°03'0 0.0
2017-Jun-20 16:58N 42°21' W 071°03'0 0.0
2017-Jun-20 16:28N 42°21' W 071°03'0 0.0
2017-Jun-20 15:58N 42°21' W 071°03'0 0.0
2017-Jun-20 15:25N 42°21' W 071°03'0 0.0
2017-Jun-20 14:55N 42°21' W 071°03'0 0.0
2017-Jun-20 13:55N 42°21' W 071°03'0 0.0
2017-Jun-20 13:19N 42°21' W 071°03'0 0.0
2017-Jun-20 12:55N 42°21' W 071°03'0 0.0
2017-Jun-20 12:25N 42°21' W 071°03'0 0.0
2017-Jun-20 11:55N 42°21' W 071°03'0 0.0
2017-Jun-20 11:19N 42°21' W 071°03'0 0.0
2017-Jun-20 10:55N 42°21' W 071°03'0 0.0
2017-Jun-20 10:22N 42°21' W 071°03'0 0.0
2017-Jun-20 09:43N 42°21' W 071°03'0 0.0
2017-Jun-20 09:25N 42°21' W 071°03'0 0.0
2017-Jun-20 08:49N 42°21' W 071°03'0 0.0
2017-Jun-20 08:25N 42°21' W 071°03'0 0.0
2017-Jun-20 07:58N 42°21' W 071°03'0 0.0
2017-Jun-20 07:28N 42°21' W 071°03'0 0.0
2017-Jun-20 06:58N 42°21' W 071°03'0 0.0
2017-Jun-20 06:28N 42°21' W 071°03'0 0.0
2017-Jun-20 05:58N 42°21' W 071°03'0 0.0
2017-Jun-20 05:28N 42°21' W 071°03'0 0.0
2017-Jun-20 04:58N 42°21' W 071°03'0 0.0
2017-Jun-20 04:28N 42°21' W 071°03'0 0.0
2017-Jun-20 03:58N 42°21' W 071°03'0 0.0
2017-Jun-20 03:25N 42°21' W 071°03'0 0.0
2017-Jun-20 02:55N 42°21' W 071°03'0 0.0
2017-Jun-20 02:25N 42°21' W 071°03'0 0.0
2017-Jun-20 01:52N 42°21' W 071°03'0 0.0
2017-Jun-20 01:25N 42°21' W 071°03'0 0.0
2017-Jun-20 00:58N 42°21' W 071°03'0 0.0
2017-Jun-20 00:28N 42°21' W 071°03'0 0.0
2017-Jun-19 23:58N 42°21' W 071°03'0 0.0
2017-Jun-19 23:28N 42°21' W 071°03'0 0.0
2017-Jun-19 22:55N 42°21' W 071°03'0 0.1
2017-Jun-19 22:28N 42°21' W 071°03'0 0.0
2017-Jun-19 21:58N 42°21' W 071°03'0 0.0
2017-Jun-19 21:28N 42°21' W 071°03'0 0.0
2017-Jun-19 20:58N 42°21' W 071°03'0 0.0
2017-Jun-19 20:25N 42°21' W 071°03'0 0.0
2017-Jun-19 19:55N 42°21' W 071°03'0 0.0
2017-Jun-19 19:22N 42°21' W 071°03'0 0.0
2017-Jun-19 18:49N 42°21' W 071°03'0 0.0
2017-Jun-19 18:28N 42°21' W 071°03'0 0.0
2017-Jun-19 17:55N 42°21' W 071°03'0 0.0
2017-Jun-19 17:28N 42°21' W 071°03'0 0.0
2017-Jun-19 16:58N 42°21' W 071°03'0 0.0
2017-Jun-19 16:28N 42°21' W 071°03'0 0.0
2017-Jun-19 15:58N 42°21' W 071°03'0 0.0
2017-Jun-19 15:25N 42°21' W 071°03'0 0.0
2017-Jun-19 14:55N 42°21' W 071°03'0 0.0
2017-Jun-19 14:28N 42°21' W 071°03'0 0.0
2017-Jun-19 13:28N 42°21' W 071°03'0 0.0
2017-Jun-19 12:49N 42°21' W 071°03'0 0.0
2017-Jun-19 12:25N 42°21' W 071°03'0 0.0
2017-Jun-19 11:55N 42°21' W 071°03'0 0.0
2017-Jun-19 11:28N 42°21' W 071°03'0 0.0
2017-Jun-19 10:55N 42°21' W 071°03'0 0.0
2017-Jun-19 10:28N 42°21' W 071°03'0 0.0
2017-Jun-19 09:58N 42°21' W 071°03'0 0.0
2017-Jun-19 09:28N 42°21' W 071°03'0 0.0
2017-Jun-19 08:55N 42°21' W 071°03'0 0.0
2017-Jun-19 08:28N 42°21' W 071°03'0 0.0
2017-Jun-19 07:58N 42°21' W 071°03'0 0.0
2017-Jun-19 07:28N 42°21' W 071°03'0 0.0
2017-Jun-19 06:58N 42°21' W 071°03'0 0.0
2017-Jun-19 06:28N 42°21' W 071°03'0 0.0
2017-Jun-19 05:58N 42°21' W 071°03'0 0.0
2017-Jun-19 05:28N 42°21' W 071°03'0 0.0
2017-Jun-19 04:58N 42°21' W 071°03'0 0.0
2017-Jun-19 04:25N 42°21' W 071°03'0 0.0
2017-Jun-19 03:58N 42°21' W 071°03'0 0.0
2017-Jun-19 03:28N 42°21' W 071°03'0 0.0
2017-Jun-19 02:58N 42°21' W 071°03'0 0.0
2017-Jun-19 02:28N 42°21' W 071°03'0 0.0
2017-Jun-19 01:58N 42°21' W 071°03'0 0.0
2017-Jun-19 01:28N 42°21' W 071°03'0 0.0
2017-Jun-19 00:58N 42°21' W 071°03'0 0.0
2017-Jun-19 00:28N 42°21' W 071°03'0 0.0
2017-Jun-18 23:58N 42°21' W 071°03'0 0.0
2017-Jun-18 23:28N 42°21' W 071°03'0 0.0
2017-Jun-18 22:58N 42°21' W 071°03'0 0.0
2017-Jun-18 22:25N 42°21' W 071°03'0 0.0
2017-Jun-18 21:58N 42°21' W 071°03'0 0.1
2017-Jun-18 21:28N 42°21' W 071°03'0 0.0
2017-Jun-18 20:55N 42°21' W 071°03'0 0.0
2017-Jun-18 20:28N 42°21' W 071°03'0 0.0
2017-Jun-18 19:58N 42°21' W 071°03'0 0.0
2017-Jun-18 19:28N 42°21' W 071°03'0 0.0
2017-Jun-18 18:55N 42°21' W 071°03'0 0.0
2017-Jun-18 18:28N 42°21' W 071°03'0 0.0
2017-Jun-18 17:58N 42°21' W 071°03'0 0.0
2017-Jun-18 17:28N 42°21' W 071°03'0 0.0
2017-Jun-18 16:58N 42°21' W 071°03'0 0.0
2017-Jun-18 16:28N 42°21' W 071°03'0 0.0
2017-Jun-18 15:58N 42°21' W 071°03'0 0.0
2017-Jun-18 15:28N 42°21' W 071°03'0 0.0
2017-Jun-18 14:58N 42°21' W 071°03'0 0.0
2017-Jun-18 13:58N 42°21' W 071°03'0 0.1
2017-Jun-18 13:25N 42°21' W 071°03'0 0.1
2017-Jun-18 12:58N 42°21' W 071°03'0 0.0
2017-Jun-18 12:28N 42°21' W 071°03'0 0.0
2017-Jun-18 11:55N 42°21' W 071°03'0 0.0
2017-Jun-18 11:28N 42°21' W 071°03'0 0.0
2017-Jun-18 10:58N 42°21' W 071°03'0 0.0
2017-Jun-18 10:28N 42°21' W 071°03'0 0.0
2017-Jun-18 09:58N 42°21' W 071°03'0 0.0
2017-Jun-18 09:25N 42°21' W 071°03'0 0.0
2017-Jun-18 08:55N 42°21' W 071°03'0 0.0
2017-Jun-18 08:25N 42°21' W 071°03'0 0.0
2017-Jun-18 07:58N 42°21' W 071°03'0 0.0
2017-Jun-18 07:25N 42°21' W 071°03'0 0.1
2017-Jun-18 06:58N 42°21' W 071°03'0 0.1
2017-Jun-18 06:28N 42°21' W 071°03'0 0.0
2017-Jun-18 05:58N 42°21' W 071°03'0 0.0
2017-Jun-18 05:28N 42°21' W 071°03'0 0.0
2017-Jun-18 04:58N 42°21' W 071°03'0 0.0
2017-Jun-18 04:28N 42°21' W 071°03'0 0.0
2017-Jun-18 03:58N 42°21' W 071°03'0 0.0
2017-Jun-18 03:28N 42°21' W 071°03'0 0.0
2017-Jun-18 02:58N 42°21' W 071°03'0 0.0
2017-Jun-18 02:25N 42°21' W 071°03'0 0.0
2017-Jun-18 01:58N 42°21' W 071°03'0 0.0
2017-Jun-18 01:25N 42°21' W 071°03'0 0.0
2017-Jun-18 00:55N 42°21' W 071°03'0 0.0
2017-Jun-18 00:25N 42°21' W 071°03'0 0.0
2017-Jun-17 23:55N 42°21' W 071°03'0 0.0
2017-Jun-17 22:49N 42°21' W 071°03'0 0.0
2017-Jun-17 22:19N 42°21' W 071°03'0 0.0
2017-Jun-17 21:55N 42°21' W 071°03'0 0.0
2017-Jun-17 21:25N 42°21' W 071°03'0 0.0
2017-Jun-17 20:58N 42°21' W 071°03'0 0.0
2017-Jun-17 20:28N 42°21' W 071°03'0 0.0
2017-Jun-17 19:55N 42°21' W 071°03'0 0.0
2017-Jun-17 19:28N 42°21' W 071°03'0 0.0
2017-Jun-17 18:58N 42°21' W 071°03'0 0.0
2017-Jun-17 18:25N 42°21' W 071°03'0 0.0
2017-Jun-17 17:58N 42°21' W 071°03'0 0.0
2017-Jun-17 17:28N 42°21' W 071°03'0 0.8
2017-Jun-17 17:00N 42°22' W 071°03'0 0.2
2017-Jun-17 16:30N 42°22' W 071°03'2 4.7
2017-Jun-17 16:00N 42°20' W 071°00'3 5.5
2017-Jun-17 15:30N 42°21' W 070°56'3 5.3
2017-Jun-17 15:01N 42°23' W 070°54'1 1.1
2017-Jun-17 13:59N 42°23' W 070°55'0 0.0
2017-Jun-17 13:29N 42°23' W 070°55'0 0.0
2017-Jun-17 12:59N 42°23' W 070°55'0 0.0
2017-Jun-17 12:29N 42°23' W 070°55'0 0.1
2017-Jun-17 11:59N 42°23' W 070°55'0 0.0
2017-Jun-17 11:29N 42°23' W 070°55'0 0.0
2017-Jun-17 10:56N 42°23' W 070°55'0 0.0
2017-Jun-17 10:29N 42°23' W 070°55'0 0.0
2017-Jun-17 09:59N 42°23' W 070°55'0 0.0
2017-Jun-17 09:29N 42°23' W 070°55'0 0.0
2017-Jun-17 08:59N 42°23' W 070°55'0 0.0
2017-Jun-17 08:29N 42°23' W 070°55'0 0.0
2017-Jun-17 07:59N 42°23' W 070°55'0 0.0
2017-Jun-17 07:29N 42°23' W 070°55'0 0.0
2017-Jun-17 06:59N 42°23' W 070°55'0 0.0
2017-Jun-17 06:29N 42°23' W 070°55'0 0.0
2017-Jun-17 05:59N 42°23' W 070°55'0 0.0
2017-Jun-17 05:29N 42°23' W 070°55'0 0.0
2017-Jun-17 04:59N 42°23' W 070°55'0 0.0
2017-Jun-17 04:29N 42°23' W 070°55'0 0.0
2017-Jun-17 03:59N 42°23' W 070°55'0 0.0
2017-Jun-17 03:29N 42°23' W 070°55'0 0.0
2017-Jun-17 02:59N 42°23' W 070°55'0 0.0
2017-Jun-17 02:29N 42°23' W 070°55'0 0.0
2017-Jun-17 01:59N 42°23' W 070°55'0 0.0
2017-Jun-17 01:29N 42°23' W 070°55'0 0.0
2017-Jun-17 00:59N 42°23' W 070°55'0 0.0
2017-Jun-17 00:29N 42°23' W 070°55'0 0.0
2017-Jun-16 23:59N 42°23' W 070°55'0 0.0
2017-Jun-16 23:29N 42°23' W 070°55'0 0.0
2017-Jun-16 22:59N 42°23' W 070°55'0 0.0
2017-Jun-16 22:29N 42°23' W 070°55'0 0.0
2017-Jun-16 21:59N 42°23' W 070°55'0 0.0
2017-Jun-16 21:29N 42°23' W 070°55'0 0.0
2017-Jun-16 20:59N 42°23' W 070°55'0 0.0
2017-Jun-16 20:29N 42°23' W 070°55'0 0.0
2017-Jun-16 19:59N 42°23' W 070°55'0 0.0
2017-Jun-16 19:29N 42°23' W 070°55'0 0.0
2017-Jun-16 18:59N 42°23' W 070°55'0 0.0
2017-Jun-16 18:29N 42°23' W 070°55'0 0.0
2017-Jun-16 17:59N 42°23' W 070°55'0 0.0
2017-Jun-16 17:29N 42°23' W 070°55'0 0.0
2017-Jun-16 16:59N 42°23' W 070°55'0 0.0
2017-Jun-16 16:29N 42°23' W 070°55'0 0.0
2017-Jun-16 15:59N 42°23' W 070°55'0 0.0
2017-Jun-16 15:29N 42°23' W 070°55'0 0.0
2017-Jun-16 14:59N 42°23' W 070°55'0 0.0
2017-Jun-16 13:59N 42°23' W 070°55'0 0.0
2017-Jun-16 13:29N 42°23' W 070°55'0 0.0
2017-Jun-16 12:59N 42°23' W 070°55'0 0.0
2017-Jun-16 12:29N 42°23' W 070°55'0 0.0
2017-Jun-16 11:59N 42°23' W 070°55'0 0.0
2017-Jun-16 11:29N 42°23' W 070°55'0 0.0
2017-Jun-16 10:59N 42°23' W 070°55'0 0.0
2017-Jun-16 10:29N 42°23' W 070°55'0 0.0
2017-Jun-16 09:59N 42°23' W 070°55'0 0.0
2017-Jun-16 09:29N 42°23' W 070°55'0 0.0
2017-Jun-16 08:59N 42°23' W 070°55'0 0.0
2017-Jun-16 08:29N 42°23' W 070°55'0 0.0
2017-Jun-16 07:59N 42°23' W 070°55'0 0.0
2017-Jun-16 07:29N 42°23' W 070°55'0 0.0
2017-Jun-16 06:59N 42°23' W 070°55'0 0.0
2017-Jun-16 06:29N 42°23' W 070°55'0 0.0
2017-Jun-16 05:59N 42°23' W 070°55'0 0.0
2017-Jun-16 05:29N 42°23' W 070°55'0 0.0
2017-Jun-16 04:59N 42°23' W 070°55'0 0.0
2017-Jun-16 04:29N 42°23' W 070°55'0 0.0
2017-Jun-16 03:59N 42°23' W 070°55'0 0.0
2017-Jun-16 03:29N 42°23' W 070°55'0 0.0
2017-Jun-16 02:59N 42°23' W 070°55'0 0.0
2017-Jun-16 02:29N 42°23' W 070°55'0 0.0
2017-Jun-16 01:59N 42°23' W 070°55'0 0.1
2017-Jun-16 01:31N 42°23' W 070°55'1 2.9
2017-Jun-16 01:01N 42°22' W 070°54'3 6.1
2017-Jun-16 00:31N 42°20' W 070°50'3 5.4
2017-Jun-16 00:00N 42°18' W 070°49'3 6.0
2017-Jun-15 23:31N 42°16' W 070°45'4 8.0
2017-Jun-15 23:00N 42°15' W 070°40'3 5.3
2017-Jun-15 22:31N 42°17' W 070°37'2 4.6
2017-Jun-15 22:00N 42°17' W 070°41'2 5.0
2017-Jun-15 21:30N 42°16' W 070°43'3 5.5
2017-Jun-15 21:00N 42°15' W 070°40'3 6.8
2017-Jun-15 20:30N 42°14' W 070°36'3 6.2
2017-Jun-15 20:00N 42°12' W 070°32'3 5.8
2017-Jun-15 19:30N 42°10' W 070°29'3 5.9
2017-Jun-15 19:00N 42°09' W 070°26'3 5.3
2017-Jun-15 18:30N 42°07' W 070°23'2 4.6
2017-Jun-15 18:00N 42°06' W 070°21'2 4.0
2017-Jun-15 17:30N 42°04' W 070°19'2 3.0
2017-Jun-15 17:00N 42°03' W 070°17'6 1.4
2017-Jun-15 12:26N 42°02' W 070°09'0 0.0
2017-Jun-15 11:26N 42°02' W 070°09'0 0.0
2017-Jun-15 10:50N 42°02' W 070°09'0 0.0
2017-Jun-15 10:29N 42°03' W 070°09'0 0.0
2017-Jun-15 09:38N 42°03' W 070°09'0 0.0
2017-Jun-15 09:17N 42°03' W 070°09'0 0.0
2017-Jun-15 08:59N 42°03' W 070°09'0 0.0
2017-Jun-15 08:29N 42°03' W 070°09'0 0.0
2017-Jun-15 07:59N 42°03' W 070°09'0 0.0
2017-Jun-15 07:29N 42°03' W 070°09'0 0.0
2017-Jun-15 06:59N 42°03' W 070°09'0 0.0
2017-Jun-15 06:26N 42°03' W 070°09'0 0.0
2017-Jun-15 05:56N 42°03' W 070°09'0 0.0
2017-Jun-15 05:26N 42°03' W 070°09'0 0.0
2017-Jun-15 04:53N 42°03' W 070°09'0 0.0
2017-Jun-15 04:26N 42°03' W 070°09'0 0.0
2017-Jun-15 03:59N 42°03' W 070°09'0 0.0
2017-Jun-15 03:29N 42°03' W 070°09'0 0.0
2017-Jun-15 02:59N 42°03' W 070°09'0 0.0
2017-Jun-14 23:20N 42°03' W 070°09'0 0.0
2017-Jun-14 22:59N 42°03' W 070°09'0 0.0
2017-Jun-14 22:26N 42°03' W 070°09'0 0.0
2017-Jun-14 21:35N 42°03' W 070°09'0 0.1
2017-Jun-14 21:29N 42°02' W 070°09'0 0.0
2017-Jun-14 20:50N 42°03' W 070°09'0 0.0
2017-Jun-14 20:23N 42°03' W 070°09'0 0.0
2017-Jun-14 19:59N 42°03' W 070°09'0 0.0
2017-Jun-14 17:05N 42°02' W 070°09'0 0.0
2017-Jun-14 16:53N 42°02' W 070°09'0 0.0
2017-Jun-14 16:23N 42°02' W 070°09'0 0.0
2017-Jun-14 15:59N 42°02' W 070°09'0 0.0
2017-Jun-14 15:29N 42°02' W 070°09'0 0.0
2017-Jun-14 14:59N 42°02' W 070°09'0 0.0
2017-Jun-14 13:59N 42°02' W 070°09'0 0.0
2017-Jun-14 13:29N 42°02' W 070°09'0 0.0
2017-Jun-14 12:59N 42°02' W 070°09'0 0.0
2017-Jun-14 12:29N 42°02' W 070°09'0 0.0
2017-Jun-14 11:59N 42°02' W 070°09'0 0.0
2017-Jun-14 11:29N 42°02' W 070°09'0 0.0
2017-Jun-14 10:59N 42°02' W 070°09'0 0.0
2017-Jun-14 10:29N 42°02' W 070°09'0 0.0
2017-Jun-14 05:12N 42°02' W 070°09'1 2.9
2017-Jun-14 04:58N 42°02' W 070°09'6 3.0
2017-Jun-14 02:57N 42°04' W 070°17'13 6.8
2017-Jun-14 00:58N 42°07' W 069°59'3 5.6
2017-Jun-14 00:28N 42°08' W 069°55'  
Track history (hours):
 
Tides and Currents Weather Stations Pressure Air Temp Water Temp Dewpoint Dewpoint Depression Visibility Wind Speed Wind Dir Waves Ship Positions

Oosterschelde (Netherlands)

Ship's website: http://www.oosterschelde.nl/indexuk.htm

Last reported at 2017-Jun-23 03:35 UTC. Time now 2017-Jun-26 12:00 UTC.
Position N 42°51' W 069°39'.

Length 49 m; draft 2.9 m.

Type: Sailing vessel. MMSI: 246010985.

Date/timePositionNaut miles runAvg speedWind from/ knotsBaromVisibWave heightAir tempDewpointWater temp
2017-Jun-23 03:35N 42°51' W 069°39'1 6.6
2017-Jun-23 03:30N 42°51' W 069°40'3 6.7
2017-Jun-23 03:00N 42°51' W 069°45'3 5.8
2017-Jun-23 02:29N 42°50' W 069°49'3 6.8
2017-Jun-23 02:00N 42°50' W 069°53'4 6.5
2017-Jun-23 01:20N 42°49' W 069°59'2 6.1
2017-Jun-23 01:00N 42°49' W 070°02'3 5.8
2017-Jun-23 00:30N 42°48' W 070°06'3 6.3
2017-Jun-23 00:00N 42°47' W 070°09'4 7.2
2017-Jun-22 23:30N 42°45' W 070°14'4 7.9
2017-Jun-22 23:00N 42°43' W 070°18'4 7.9
2017-Jun-22 22:30N 42°40' W 070°22'4 8.1
2017-Jun-22 22:00N 42°38' W 070°27'1 2.5
2017-Jun-22 21:30N 42°38' W 070°29'2 3.5
2017-Jun-22 21:00N 42°36' W 070°27'3 6.3
2017-Jun-22 20:30N 42°34' W 070°30'3 6.8
2017-Jun-22 20:00N 42°32' W 070°34'4 7.5
2017-Jun-22 19:30N 42°30' W 070°38'4 8.3
2017-Jun-22 19:00N 42°29' W 070°43'4 8.2
2017-Jun-22 18:30N 42°27' W 070°48'3 6.6
2017-Jun-22 18:00N 42°25' W 070°52'3 6.4
2017-Jun-22 17:30N 42°22' W 070°55'4 7.6
2017-Jun-22 17:00N 42°20' W 070°59'3 5.6
2017-Jun-22 16:28N 42°21' W 071°03'0 0.0
2017-Jun-22 15:55N 42°21' W 071°03'0 0.0
2017-Jun-22 15:25N 42°21' W 071°03'0 0.0
2017-Jun-22 14:55N 42°21' W 071°03'0 0.0
2017-Jun-22 13:58N 42°21' W 071°03'0 0.1
2017-Jun-22 13:28N 42°21' W 071°03'0 0.1
2017-Jun-22 12:55N 42°21' W 071°03'0 0.0
2017-Jun-22 12:28N 42°21' W 071°03'0 0.0
2017-Jun-22 11:55N 42°21' W 071°03'0 0.0
2017-Jun-22 11:25N 42°21' W 071°03'0 0.1
2017-Jun-22 10:58N 42°21' W 071°03'0 0.0
2017-Jun-22 10:28N 42°21' W 071°03'0 0.0
2017-Jun-22 09:58N 42°21' W 071°03'0 0.0
2017-Jun-22 09:28N 42°21' W 071°03'0 0.0
2017-Jun-22 08:58N 42°21' W 071°03'0 0.0
2017-Jun-22 08:28N 42°21' W 071°03'0 0.0
2017-Jun-22 07:58N 42°21' W 071°03'0 0.0
2017-Jun-22 07:28N 42°21' W 071°03'0 0.0
2017-Jun-22 06:58N 42°21' W 071°03'0 0.1
2017-Jun-22 06:28N 42°21' W 071°03'0 0.1
2017-Jun-22 05:58N 42°21' W 071°03'0 0.0
2017-Jun-22 05:28N 42°21' W 071°03'0 0.0
2017-Jun-22 04:55N 42°21' W 071°03'0 0.0
2017-Jun-22 04:25N 42°21' W 071°03'0 0.0
2017-Jun-22 03:55N 42°21' W 071°03'0 0.0
2017-Jun-22 03:19N 42°21' W 071°03'0 0.0
2017-Jun-22 02:55N 42°21' W 071°03'0 0.0
2017-Jun-22 02:25N 42°21' W 071°03'0 0.0
2017-Jun-22 01:55N 42°21' W 071°03'0 0.0
2017-Jun-22 01:25N 42°21' W 071°03'0 0.0
2017-Jun-22 00:58N 42°21' W 071°03'0 0.0
2017-Jun-22 00:28N 42°21' W 071°03'0 0.0
2017-Jun-21 23:49N 42°21' W 071°03'0 0.0
2017-Jun-21 23:25N 42°21' W 071°03'0 0.0
2017-Jun-21 22:55N 42°21' W 071°03'0 0.0
2017-Jun-21 22:28N 42°21' W 071°03'0 0.0
2017-Jun-21 21:55N 42°21' W 071°03'0 0.0
2017-Jun-21 21:28N 42°21' W 071°03'0 0.0
2017-Jun-21 20:58N 42°21' W 071°03'0 0.0
2017-Jun-21 20:25N 42°21' W 071°03'0 0.0
2017-Jun-21 19:58N 42°21' W 071°03'0 0.0
2017-Jun-21 19:28N 42°21' W 071°03'0 0.0
2017-Jun-21 18:58N 42°21' W 071°03'0 0.0
2017-Jun-21 18:25N 42°21' W 071°03'0 0.0
2017-Jun-21 17:58N 42°21' W 071°03'0 0.0
2017-Jun-21 17:28N 42°21' W 071°03'0 0.0
2017-Jun-21 16:58N 42°21' W 071°03'0 0.0
2017-Jun-21 16:25N 42°21' W 071°03'0 0.0
2017-Jun-21 15:55N 42°21' W 071°03'0 0.0
2017-Jun-21 15:28N 42°21' W 071°03'0 0.1
2017-Jun-21 14:55N 42°21' W 071°03'0 0.1
2017-Jun-21 14:25N 42°21' W 071°03'0 0.0
2017-Jun-21 13:28N 42°21' W 071°03'0 0.0
2017-Jun-21 12:58N 42°21' W 071°03'0 0.0
2017-Jun-21 12:28N 42°21' W 071°03'0 0.0
2017-Jun-21 11:55N 42°21' W 071°03'0 0.0
2017-Jun-21 11:28N 42°21' W 071°03'0 0.0
2017-Jun-21 10:58N 42°21' W 071°03'0 0.0
2017-Jun-21 10:28N 42°21' W 071°03'0 0.0
2017-Jun-21 09:58N 42°21' W 071°03'0 0.0
2017-Jun-21 09:28N 42°21' W 071°03'0 0.0
2017-Jun-21 08:55N 42°21' W 071°03'0 0.0
2017-Jun-21 08:28N 42°21' W 071°03'0 0.0
2017-Jun-21 07:58N 42°21' W 071°03'0 0.0
2017-Jun-21 07:25N 42°21' W 071°03'0 0.0
2017-Jun-21 06:58N 42°21' W 071°03'0 0.0
2017-Jun-21 06:28N 42°21' W 071°03'0 0.0
2017-Jun-21 05:58N 42°21' W 071°03'0 0.0
2017-Jun-21 05:25N 42°21' W 071°03'0 0.1
2017-Jun-21 04:58N 42°21' W 071°03'0 0.1
2017-Jun-21 04:25N 42°21' W 071°03'0 0.0
2017-Jun-21 03:58N 42°21' W 071°03'0 0.0
2017-Jun-21 03:28N 42°21' W 071°03'0 0.0
2017-Jun-21 02:58N 42°21' W 071°03'0 0.0
2017-Jun-21 02:28N 42°21' W 071°03'0 0.0
2017-Jun-21 01:55N 42°21' W 071°03'0 0.0
2017-Jun-21 01:28N 42°21' W 071°03'0 0.0
2017-Jun-21 00:58N 42°21' W 071°03'0 0.0
2017-Jun-21 00:28N 42°21' W 071°03'0 0.0
2017-Jun-20 23:55N 42°21' W 071°03'0 0.0
2017-Jun-20 23:25N 42°21' W 071°03'0 0.0
2017-Jun-20 22:55N 42°21' W 071°03'0 0.0
2017-Jun-20 22:28N 42°21' W 071°03'0 0.0
2017-Jun-20 21:55N 42°21' W 071°03'0 0.0
2017-Jun-20 21:28N 42°21' W 071°03'0 0.0
2017-Jun-20 20:58N 42°21' W 071°03'0 0.0
2017-Jun-20 20:28N 42°21' W 071°03'0 0.0
2017-Jun-20 19:58N 42°21' W 071°03'0 0.0
2017-Jun-20 19:28N 42°21' W 071°03'0 0.0
2017-Jun-20 18:58N 42°21' W 071°03'0 0.0
2017-Jun-20 18:25N 42°21' W 071°03'0 0.0
2017-Jun-20 17:58N 42°21' W 071°03'0 0.0
2017-Jun-20 17:25N 42°21' W 071°03'0 0.0
2017-Jun-20 16:58N 42°21' W 071°03'0 0.0
2017-Jun-20 16:28N 42°21' W 071°03'0 0.0
2017-Jun-20 15:58N 42°21' W 071°03'0 0.0
2017-Jun-20 15:25N 42°21' W 071°03'0 0.0
2017-Jun-20 14:55N 42°21' W 071°03'0 0.0
2017-Jun-20 13:55N 42°21' W 071°03'0 0.0
2017-Jun-20 13:19N 42°21' W 071°03'0 0.0
2017-Jun-20 12:55N 42°21' W 071°03'0 0.0
2017-Jun-20 12:25N 42°21' W 071°03'0 0.0
2017-Jun-20 11:55N 42°21' W 071°03'0 0.0
2017-Jun-20 11:19N 42°21' W 071°03'0 0.0
2017-Jun-20 10:55N 42°21' W 071°03'0 0.0
2017-Jun-20 10:22N 42°21' W 071°03'0 0.0
2017-Jun-20 09:43N 42°21' W 071°03'0 0.0
2017-Jun-20 09:25N 42°21' W 071°03'0 0.0
2017-Jun-20 08:49N 42°21' W 071°03'0 0.0
2017-Jun-20 08:25N 42°21' W 071°03'0 0.0
2017-Jun-20 07:58N 42°21' W 071°03'0 0.0
2017-Jun-20 07:28N 42°21' W 071°03'0 0.0
2017-Jun-20 06:58N 42°21' W 071°03'0 0.0
2017-Jun-20 06:28N 42°21' W 071°03'0 0.0
2017-Jun-20 05:58N 42°21' W 071°03'0 0.0
2017-Jun-20 05:28N 42°21' W 071°03'0 0.0
2017-Jun-20 04:58N 42°21' W 071°03'0 0.0
2017-Jun-20 04:28N 42°21' W 071°03'0 0.0
2017-Jun-20 03:58N 42°21' W 071°03'0 0.0
2017-Jun-20 03:25N 42°21' W 071°03'0 0.0
2017-Jun-20 02:55N 42°21' W 071°03'0 0.0
2017-Jun-20 02:25N 42°21' W 071°03'0 0.0
2017-Jun-20 01:52N 42°21' W 071°03'0 0.0
2017-Jun-20 01:25N 42°21' W 071°03'0 0.0
2017-Jun-20 00:58N 42°21' W 071°03'0 0.0
2017-Jun-20 00:28N 42°21' W 071°03'0 0.0
2017-Jun-19 23:58N 42°21' W 071°03'0 0.0
2017-Jun-19 23:28N 42°21' W 071°03'0 0.0
2017-Jun-19 22:55N 42°21' W 071°03'0 0.1
2017-Jun-19 22:28N 42°21' W 071°03'0 0.0
2017-Jun-19 21:58N 42°21' W 071°03'0 0.0
2017-Jun-19 21:28N 42°21' W 071°03'0 0.0
2017-Jun-19 20:58N 42°21' W 071°03'0 0.0
2017-Jun-19 20:25N 42°21' W 071°03'0 0.0
2017-Jun-19 19:55N 42°21' W 071°03'0 0.0
2017-Jun-19 19:22N 42°21' W 071°03'0 0.0
2017-Jun-19 18:49N 42°21' W 071°03'0 0.0
2017-Jun-19 18:28N 42°21' W 071°03'0 0.0
2017-Jun-19 17:55N 42°21' W 071°03'0 0.0
2017-Jun-19 17:28N 42°21' W 071°03'0 0.0
2017-Jun-19 16:58N 42°21' W 071°03'0 0.0
2017-Jun-19 16:28N 42°21' W 071°03'0 0.0
2017-Jun-19 15:58N 42°21' W 071°03'0 0.0
2017-Jun-19 15:25N 42°21' W 071°03'0 0.0
2017-Jun-19 14:55N 42°21' W 071°03'0 0.0
2017-Jun-19 14:28N 42°21' W 071°03'0 0.0
2017-Jun-19 13:28N 42°21' W 071°03'0 0.0
2017-Jun-19 12:49N 42°21' W 071°03'0 0.0
2017-Jun-19 12:25N 42°21' W 071°03'0 0.0
2017-Jun-19 11:55N 42°21' W 071°03'0 0.0
2017-Jun-19 11:28N 42°21' W 071°03'0 0.0
2017-Jun-19 10:55N 42°21' W 071°03'0 0.0
2017-Jun-19 10:28N 42°21' W 071°03'0 0.0
2017-Jun-19 09:58N 42°21' W 071°03'0 0.0
2017-Jun-19 09:28N 42°21' W 071°03'0 0.0
2017-Jun-19 08:55N 42°21' W 071°03'0 0.0
2017-Jun-19 08:28N 42°21' W 071°03'0 0.0
2017-Jun-19 07:58N 42°21' W 071°03'0 0.0
2017-Jun-19 07:28N 42°21' W 071°03'0 0.0
2017-Jun-19 06:58N 42°21' W 071°03'0 0.0
2017-Jun-19 06:28N 42°21' W 071°03'0 0.0
2017-Jun-19 05:58N 42°21' W 071°03'0 0.0
2017-Jun-19 05:28N 42°21' W 071°03'0 0.0
2017-Jun-19 04:58N 42°21' W 071°03'0 0.0
2017-Jun-19 04:25N 42°21' W 071°03'0 0.0
2017-Jun-19 03:58N 42°21' W 071°03'0 0.0
2017-Jun-19 03:28N 42°21' W 071°03'0 0.0
2017-Jun-19 02:58N 42°21' W 071°03'0 0.0
2017-Jun-19 02:28N 42°21' W 071°03'0 0.0
2017-Jun-19 01:58N 42°21' W 071°03'0 0.0
2017-Jun-19 01:28N 42°21' W 071°03'0 0.0
2017-Jun-19 00:58N 42°21' W 071°03'0 0.0
2017-Jun-19 00:28N 42°21' W 071°03'0 0.0
2017-Jun-18 23:58N 42°21' W 071°03'0 0.0
2017-Jun-18 23:28N 42°21' W 071°03'0 0.0
2017-Jun-18 22:58N 42°21' W 071°03'0 0.0
2017-Jun-18 22:25N 42°21' W 071°03'0 0.0
2017-Jun-18 21:58N 42°21' W 071°03'0 0.1
2017-Jun-18 21:28N 42°21' W 071°03'0 0.0
2017-Jun-18 20:55N 42°21' W 071°03'0 0.0
2017-Jun-18 20:28N 42°21' W 071°03'0 0.0
2017-Jun-18 19:58N 42°21' W 071°03'0 0.0
2017-Jun-18 19:28N 42°21' W 071°03'0 0.0
2017-Jun-18 18:55N 42°21' W 071°03'0 0.0
2017-Jun-18 18:28N 42°21' W 071°03'0 0.0
2017-Jun-18 17:58N 42°21' W 071°03'0 0.0
2017-Jun-18 17:28N 42°21' W 071°03'0 0.0
2017-Jun-18 16:58N 42°21' W 071°03'0 0.0
2017-Jun-18 16:28N 42°21' W 071°03'0 0.0
2017-Jun-18 15:58N 42°21' W 071°03'0 0.0
2017-Jun-18 15:28N 42°21' W 071°03'0 0.0
2017-Jun-18 14:58N 42°21' W 071°03'0 0.0
2017-Jun-18 13:58N 42°21' W 071°03'0 0.1
2017-Jun-18 13:25N 42°21' W 071°03'0 0.1
2017-Jun-18 12:58N 42°21' W 071°03'0 0.0
2017-Jun-18 12:28N 42°21' W 071°03'0 0.0
2017-Jun-18 11:55N 42°21' W 071°03'0 0.0
2017-Jun-18 11:28N 42°21' W 071°03'0 0.0
2017-Jun-18 10:58N 42°21' W 071°03'0 0.0
2017-Jun-18 10:28N 42°21' W 071°03'0 0.0
2017-Jun-18 09:58N 42°21' W 071°03'0 0.0
2017-Jun-18 09:25N 42°21' W 071°03'0 0.0
2017-Jun-18 08:55N 42°21' W 071°03'0 0.0
2017-Jun-18 08:25N 42°21' W 071°03'0 0.0
2017-Jun-18 07:58N 42°21' W 071°03'0 0.0
2017-Jun-18 07:25N 42°21' W 071°03'0 0.1
2017-Jun-18 06:58N 42°21' W 071°03'0 0.1
2017-Jun-18 06:28N 42°21' W 071°03'0 0.0
2017-Jun-18 05:58N 42°21' W 071°03'0 0.0
2017-Jun-18 05:28N 42°21' W 071°03'0 0.0
2017-Jun-18 04:58N 42°21' W 071°03'0 0.0
2017-Jun-18 04:28N 42°21' W 071°03'0 0.0
2017-Jun-18 03:58N 42°21' W 071°03'0 0.0
2017-Jun-18 03:28N 42°21' W 071°03'0 0.0
2017-Jun-18 02:58N 42°21' W 071°03'0 0.0
2017-Jun-18 02:25N 42°21' W 071°03'0 0.0
2017-Jun-18 01:58N 42°21' W 071°03'0 0.0
2017-Jun-18 01:25N 42°21' W 071°03'0 0.0
2017-Jun-18 00:55N 42°21' W 071°03'0 0.0
2017-Jun-18 00:25N 42°21' W 071°03'0 0.0
2017-Jun-17 23:55N 42°21' W 071°03'0 0.0
2017-Jun-17 22:49N 42°21' W 071°03'0 0.0
2017-Jun-17 22:19N 42°21' W 071°03'0 0.0
2017-Jun-17 21:55N 42°21' W 071°03'0 0.0
2017-Jun-17 21:25N 42°21' W 071°03'0 0.0
2017-Jun-17 20:58N 42°21' W 071°03'0 0.0
2017-Jun-17 20:28N 42°21' W 071°03'0 0.0
2017-Jun-17 19:55N 42°21' W 071°03'0 0.0
2017-Jun-17 19:28N 42°21' W 071°03'0 0.0
2017-Jun-17 18:58N 42°21' W 071°03'0 0.0
2017-Jun-17 18:25N 42°21' W 071°03'0 0.0
2017-Jun-17 17:58N 42°21' W 071°03'0 0.0
2017-Jun-17 17:28N 42°21' W 071°03'0 0.8
2017-Jun-17 17:00N 42°22' W 071°03'0 0.2
2017-Jun-17 16:30N 42°22' W 071°03'2 4.7
2017-Jun-17 16:00N 42°20' W 071°00'3 5.5
2017-Jun-17 15:30N 42°21' W 070°56'3 5.3
2017-Jun-17 15:01N 42°23' W 070°54'1 1.1
2017-Jun-17 13:59N 42°23' W 070°55'0 0.0
2017-Jun-17 13:29N 42°23' W 070°55'0 0.0
2017-Jun-17 12:59N 42°23' W 070°55'0 0.0
2017-Jun-17 12:29N 42°23' W 070°55'0 0.1
2017-Jun-17 11:59N 42°23' W 070°55'0 0.0
2017-Jun-17 11:29N 42°23' W 070°55'0 0.0
2017-Jun-17 10:56N 42°23' W 070°55'0 0.0
2017-Jun-17 10:29N 42°23' W 070°55'0 0.0
2017-Jun-17 09:59N 42°23' W 070°55'0 0.0
2017-Jun-17 09:29N 42°23' W 070°55'0 0.0
2017-Jun-17 08:59N 42°23' W 070°55'0 0.0
2017-Jun-17 08:29N 42°23' W 070°55'0 0.0
2017-Jun-17 07:59N 42°23' W 070°55'0 0.0
2017-Jun-17 07:29N 42°23' W 070°55'0 0.0
2017-Jun-17 06:59N 42°23' W 070°55'0 0.0
2017-Jun-17 06:29N 42°23' W 070°55'0 0.0
2017-Jun-17 05:59N 42°23' W 070°55'0 0.0
2017-Jun-17 05:29N 42°23' W 070°55'0 0.0
2017-Jun-17 04:59N 42°23' W 070°55'0 0.0
2017-Jun-17 04:29N 42°23' W 070°55'0 0.0
2017-Jun-17 03:59N 42°23' W 070°55'0 0.0
2017-Jun-17 03:29N 42°23' W 070°55'0 0.0
2017-Jun-17 02:59N 42°23' W 070°55'0 0.0
2017-Jun-17 02:29N 42°23' W 070°55'0 0.0
2017-Jun-17 01:59N 42°23' W 070°55'0 0.0
2017-Jun-17 01:29N 42°23' W 070°55'0 0.0
2017-Jun-17 00:59N 42°23' W 070°55'0 0.0
2017-Jun-17 00:29N 42°23' W 070°55'0 0.0
2017-Jun-16 23:59N 42°23' W 070°55'0 0.0
2017-Jun-16 23:29N 42°23' W 070°55'0 0.0
2017-Jun-16 22:59N 42°23' W 070°55'0 0.0
2017-Jun-16 22:29N 42°23' W 070°55'0 0.0
2017-Jun-16 21:59N 42°23' W 070°55'0 0.0
2017-Jun-16 21:29N 42°23' W 070°55'0 0.0
2017-Jun-16 20:59N 42°23' W 070°55'0 0.0
2017-Jun-16 20:29N 42°23' W 070°55'0 0.0
2017-Jun-16 19:59N 42°23' W 070°55'0 0.0
2017-Jun-16 19:29N 42°23' W 070°55'0 0.0
2017-Jun-16 18:59N 42°23' W 070°55'0 0.0
2017-Jun-16 18:29N 42°23' W 070°55'0 0.0
2017-Jun-16 17:59N 42°23' W 070°55'0 0.0
2017-Jun-16 17:29N 42°23' W 070°55'0 0.0
2017-Jun-16 16:59N 42°23' W 070°55'0 0.0
2017-Jun-16 16:29N 42°23' W 070°55'0 0.0
2017-Jun-16 15:59N 42°23' W 070°55'0 0.0
2017-Jun-16 15:29N 42°23' W 070°55'0 0.0
2017-Jun-16 14:59N 42°23' W 070°55'0 0.0
2017-Jun-16 13:59N 42°23' W 070°55'0 0.0
2017-Jun-16 13:29N 42°23' W 070°55'0 0.0
2017-Jun-16 12:59N 42°23' W 070°55'0 0.0
2017-Jun-16 12:29N 42°23' W 070°55'0 0.0
2017-Jun-16 11:59N 42°23' W 070°55'0 0.0
2017-Jun-16 11:29N 42°23' W 070°55'0 0.0
2017-Jun-16 10:59N 42°23' W 070°55'0 0.0
2017-Jun-16 10:29N 42°23' W 070°55'0 0.0
2017-Jun-16 09:59N 42°23' W 070°55'0 0.0
2017-Jun-16 09:29N 42°23' W 070°55'0 0.0
2017-Jun-16 08:59N 42°23' W 070°55'0 0.0
2017-Jun-16 08:29N 42°23' W 070°55'0 0.0
2017-Jun-16 07:59N 42°23' W 070°55'0 0.0
2017-Jun-16 07:29N 42°23' W 070°55'0 0.0
2017-Jun-16 06:59N 42°23' W 070°55'0 0.0
2017-Jun-16 06:29N 42°23' W 070°55'0 0.0
2017-Jun-16 05:59N 42°23' W 070°55'0 0.0
2017-Jun-16 05:29N 42°23' W 070°55'0 0.0
2017-Jun-16 04:59N 42°23' W 070°55'0 0.0
2017-Jun-16 04:29N 42°23' W 070°55'0 0.0
2017-Jun-16 03:59N 42°23' W 070°55'0 0.0
2017-Jun-16 03:29N 42°23' W 070°55'0 0.0
2017-Jun-16 02:59N 42°23' W 070°55'0 0.0
2017-Jun-16 02:29N 42°23' W 070°55'0 0.0
2017-Jun-16 01:59N 42°23' W 070°55'0 0.1
2017-Jun-16 01:31N 42°23' W 070°55'1 2.9
2017-Jun-16 01:01N 42°22' W 070°54'3 6.1
2017-Jun-16 00:31N 42°20' W 070°50'3 5.4
2017-Jun-16 00:00N 42°18' W 070°49'3 6.0
2017-Jun-15 23:31N 42°16' W 070°45'4 8.0
2017-Jun-15 23:00N 42°15' W 070°40'3 5.3
2017-Jun-15 22:31N 42°17' W 070°37'2 4.6
2017-Jun-15 22:00N 42°17' W 070°41'2 5.0
2017-Jun-15 21:30N 42°16' W 070°43'3 5.5
2017-Jun-15 21:00N 42°15' W 070°40'3 6.8
2017-Jun-15 20:30N 42°14' W 070°36'3 6.2
2017-Jun-15 20:00N 42°12' W 070°32'3 5.8
2017-Jun-15 19:30N 42°10' W 070°29'3 5.9
2017-Jun-15 19:00N 42°09' W 070°26'3 5.3
2017-Jun-15 18:30N 42°07' W 070°23'2 4.6
2017-Jun-15 18:00N 42°06' W 070°21'2 4.0
2017-Jun-15 17:30N 42°04' W 070°19'2 3.0
2017-Jun-15 17:00N 42°03' W 070°17'6 1.4
2017-Jun-15 12:26N 42°02' W 070°09'0 0.0
2017-Jun-15 11:26N 42°02' W 070°09'0 0.0
2017-Jun-15 10:50N 42°02' W 070°09'0 0.0
2017-Jun-15 10:29N 42°03' W 070°09'0 0.0
2017-Jun-15 09:38N 42°03' W 070°09'0 0.0
2017-Jun-15 09:17N 42°03' W 070°09'0 0.0
2017-Jun-15 08:59N 42°03' W 070°09'0 0.0
2017-Jun-15 08:29N 42°03' W 070°09'0 0.0
2017-Jun-15 07:59N 42°03' W 070°09'0 0.0
2017-Jun-15 07:29N 42°03' W 070°09'0 0.0
2017-Jun-15 06:59N 42°03' W 070°09'0 0.0
2017-Jun-15 06:26N 42°03' W 070°09'0 0.0
2017-Jun-15 05:56N 42°03' W 070°09'0 0.0
2017-Jun-15 05:26N 42°03' W 070°09'0 0.0
2017-Jun-15 04:53N 42°03' W 070°09'0 0.0
2017-Jun-15 04:26N 42°03' W 070°09'0 0.0
2017-Jun-15 03:59N 42°03' W 070°09'0 0.0
2017-Jun-15 03:29N 42°03' W 070°09'0 0.0
2017-Jun-15 02:59N 42°03' W 070°09'0 0.0
2017-Jun-14 23:20N 42°03' W 070°09'0 0.0
2017-Jun-14 22:59N 42°03' W 070°09'0 0.0
2017-Jun-14 22:26N 42°03' W 070°09'0 0.0
2017-Jun-14 21:35N 42°03' W 070°09'0 0.1
2017-Jun-14 21:29N 42°02' W 070°09'0 0.0
2017-Jun-14 20:50N 42°03' W 070°09'0 0.0
2017-Jun-14 20:23N 42°03' W 070°09'0 0.0
2017-Jun-14 19:59N 42°03' W 070°09'0 0.0
2017-Jun-14 17:05N 42°02' W 070°09'0 0.0
2017-Jun-14 16:53N 42°02' W 070°09'0 0.0
2017-Jun-14 16:23N 42°02' W 070°09'0 0.0
2017-Jun-14 15:59N 42°02' W 070°09'0 0.0
2017-Jun-14 15:29N 42°02' W 070°09'0 0.0
2017-Jun-14 14:59N 42°02' W 070°09'0 0.0
2017-Jun-14 13:59N 42°02' W 070°09'0 0.0
2017-Jun-14 13:29N 42°02' W 070°09'0 0.0
2017-Jun-14 12:59N 42°02' W 070°09'0 0.0
2017-Jun-14 12:29N 42°02' W 070°09'0 0.0
2017-Jun-14 11:59N 42°02' W 070°09'0 0.0
2017-Jun-14 11:29N 42°02' W 070°09'0 0.0
2017-Jun-14 10:59N 42°02' W 070°09'0 0.0
2017-Jun-14 10:29N 42°02' W 070°09'0 0.0
2017-Jun-14 05:12N 42°02' W 070°09'1 2.9
2017-Jun-14 04:58N 42°02' W 070°09'6 3.0
2017-Jun-14 02:57N 42°04' W 070°17'13 6.8
2017-Jun-14 00:58N 42°07' W 069°59'3 5.6
2017-Jun-14 00:28N 42°08' W 069°55'  

Dump ship's entire track history